createdAt,value
2016-12-15T00:00:12.715Z,6.81
2016-12-15T00:01:12.484Z,6.85
2016-12-15T00:02:12.600Z,6.84
2016-12-15T00:03:12.498Z,6.87
2016-12-15T00:04:12.272Z,6.92
2016-12-15T00:05:12.719Z,6.84
2016-12-15T00:06:12.250Z,6.92
2016-12-15T00:07:11.965Z,6.85
2016-12-15T00:08:12.167Z,6.87
2016-12-15T00:09:12.765Z,6.85
2016-12-15T00:10:12.186Z,6.84
2016-12-15T00:11:13.082Z,6.89
2016-12-15T00:12:13.666Z,6.81
2016-12-15T00:13:12.531Z,6.84
2016-12-15T00:14:12.535Z,6.84
2016-12-15T00:15:13.104Z,6.88
2016-12-15T00:16:13.166Z,6.82
2016-12-15T00:17:12.422Z,6.84
2016-12-15T00:18:12.838Z,6.81
2016-12-15T00:19:12.838Z,6.84
2016-12-15T00:20:12.503Z,6.81
2016-12-15T00:21:12.475Z,6.79
2016-12-15T00:22:12.670Z,6.84
2016-12-15T00:23:12.603Z,6.84
2016-12-15T00:24:13.096Z,6.82
2016-12-15T00:25:12.473Z,6.84
2016-12-15T00:26:12.844Z,6.84
2016-12-15T00:27:12.812Z,6.84
2016-12-15T00:28:13.357Z,6.82
2016-12-15T00:29:13.597Z,6.85
2016-12-15T00:30:12.939Z,6.93
2016-12-15T00:31:13.122Z,6.88
2016-12-15T00:32:12.501Z,6.92
2016-12-15T00:33:13.256Z,6.85
2016-12-15T00:34:13.161Z,6.87
2016-12-15T00:35:13.755Z,6.93
2016-12-15T00:36:13.676Z,6.82
2016-12-15T00:37:13.263Z,6.88
2016-12-15T00:38:12.905Z,6.84
2016-12-15T00:39:13.303Z,6.82
2016-12-15T00:40:13.372Z,6.88
2016-12-15T00:41:12.677Z,6.85
2016-12-15T00:42:12.728Z,6.87
2016-12-15T00:43:12.786Z,6.88
2016-12-15T00:44:13.748Z,6.85
2016-12-15T00:45:13.636Z,6.84
2016-12-15T00:46:13.545Z,6.96
2016-12-15T00:47:13.156Z,6.93
2016-12-15T00:48:13.200Z,6.92
2016-12-15T00:49:13.576Z,6.95
2016-12-15T00:50:13.586Z,6.85
2016-12-15T00:51:13.072Z,6.87
2016-12-15T00:52:13.509Z,6.89
2016-12-15T00:53:13.420Z,6.95
2016-12-15T00:54:13.143Z,6.84
2016-12-15T00:55:13.655Z,6.85
2016-12-15T00:56:13.672Z,6.87
2016-12-15T00:57:13.619Z,6.87
2016-12-15T00:58:14.113Z,6.92
2016-12-15T00:59:13.648Z,6.95
2016-12-15T01:00:13.409Z,6.93
2016-12-15T01:01:13.609Z,7
2016-12-15T01:02:13.894Z,7.02
2016-12-15T01:03:13.572Z,6.99
2016-12-15T01:04:13.983Z,7.03
2016-12-15T01:05:13.433Z,6.99
2016-12-15T01:06:13.379Z,7
2016-12-15T01:07:14.026Z,7.05
2016-12-15T01:08:13.562Z,7
2016-12-15T01:09:13.499Z,7.07
2016-12-15T01:10:14.304Z,7.07
2016-12-15T01:11:14.499Z,6.99
2016-12-15T01:12:14.109Z,7
2016-12-15T01:13:13.547Z,7.06
2016-12-15T01:14:14.029Z,7.05
2016-12-15T01:15:13.685Z,6.97
2016-12-15T01:16:13.731Z,6.99
2016-12-15T01:17:13.262Z,7
2016-12-15T01:18:13.570Z,6.99
2016-12-15T01:19:13.875Z,6.89
2016-12-15T01:20:13.103Z,7.05
2016-12-15T01:21:13.570Z,6.93
2016-12-15T01:22:13.386Z,6.88
2016-12-15T01:23:13.859Z,6.92
2016-12-15T01:24:14.232Z,7.02
2016-12-15T01:25:14.148Z,6.92
2016-12-15T01:26:13.681Z,6.92
2016-12-15T01:27:15.096Z,6.89
2016-12-15T01:28:14.503Z,6.96
2016-12-15T01:29:14.285Z,6.96
2016-12-15T01:30:13.431Z,6.96
2016-12-15T01:31:13.370Z,6.99
2016-12-15T01:32:13.748Z,6.96
2016-12-15T01:33:14.346Z,6.89
2016-12-15T01:34:14.141Z,6.93
2016-12-15T01:35:13.821Z,6.85
2016-12-15T01:36:13.804Z,6.92
2016-12-15T01:37:13.624Z,6.87
2016-12-15T01:38:14.298Z,6.88
2016-12-15T01:39:13.572Z,6.88
2016-12-15T01:40:14.031Z,6.95
2016-12-15T01:41:14.434Z,6.85
2016-12-15T01:42:14.061Z,6.84
2016-12-15T01:43:14.186Z,6.84
2016-12-15T01:44:14.538Z,6.84
2016-12-15T01:45:14.191Z,6.85
2016-12-15T01:46:14.012Z,6.85
2016-12-15T01:47:14.238Z,6.79
2016-12-15T01:48:14.249Z,6.85
2016-12-15T01:49:15.282Z,6.93
2016-12-15T01:50:14.193Z,6.89
2016-12-15T01:51:15.027Z,6.85
2016-12-15T01:52:13.995Z,6.85
2016-12-15T01:53:14.231Z,6.89
2016-12-15T01:54:14.378Z,6.95
2016-12-15T01:55:14.405Z,6.84
2016-12-15T01:56:14.315Z,6.85
2016-12-15T01:57:14.863Z,6.81
2016-12-15T01:58:14.360Z,6.84
2016-12-15T01:59:13.749Z,6.85
2016-12-15T02:00:14.446Z,6.88
2016-12-15T02:01:14.297Z,6.84
2016-12-15T02:02:14.413Z,6.81
2016-12-15T02:03:14.701Z,6.84
2016-12-15T02:04:15.098Z,6.84
2016-12-15T02:05:15.380Z,6.82
2016-12-15T02:06:15.027Z,6.81
2016-12-15T02:07:14.446Z,6.82
2016-12-15T02:08:15.010Z,6.82
2016-12-15T02:09:14.279Z,6.87
2016-12-15T02:10:14.085Z,6.78
2016-12-15T02:11:14.603Z,6.77
2016-12-15T02:12:15.166Z,6.75
2016-12-15T02:13:14.655Z,6.69
2016-12-15T02:14:14.568Z,6.69
2016-12-15T02:15:14.776Z,6.78
2016-12-15T02:16:14.959Z,6.79
2016-12-15T02:17:14.455Z,6.79
2016-12-15T02:18:14.588Z,6.74
2016-12-15T02:19:14.285Z,6.82
2016-12-15T02:20:14.632Z,6.79
2016-12-15T02:21:14.352Z,6.84
2016-12-15T02:22:14.808Z,6.81
2016-12-15T02:23:14.822Z,6.82
2016-12-15T02:24:15.484Z,6.82
2016-12-15T02:25:14.785Z,6.87
2016-12-15T02:26:14.896Z,6.96
2016-12-15T02:27:14.589Z,7.02
2016-12-15T02:28:14.417Z,7.03
2016-12-15T02:29:14.529Z,7.05
2016-12-15T02:30:14.865Z,7.03
2016-12-15T02:31:14.312Z,7.05
2016-12-15T02:32:14.359Z,7.07
2016-12-15T02:33:14.394Z,7.03
2016-12-15T02:34:14.889Z,7.13
2016-12-15T02:35:14.741Z,7.17
2016-12-15T02:36:15.423Z,7.15
2016-12-15T02:37:16.053Z,7.11
2016-12-15T02:38:15.289Z,7.17
2016-12-15T02:39:15.103Z,7.15
2016-12-15T02:40:14.669Z,7.15
2016-12-15T02:41:15.068Z,7.24
2016-12-15T02:42:14.759Z,7.2
2016-12-15T02:43:15.889Z,7.25
2016-12-15T02:44:15.748Z,7.23
2016-12-15T02:45:14.749Z,7.23
2016-12-15T02:46:15.640Z,7.2
2016-12-15T02:47:15.534Z,7.25
2016-12-15T02:48:15.033Z,7.23
2016-12-15T02:49:14.639Z,7.24
2016-12-15T02:50:15.493Z,7.21
2016-12-15T02:51:15.834Z,7.25
2016-12-15T02:52:15.613Z,7.21
2016-12-15T02:53:15.811Z,7.17
2016-12-15T02:54:14.552Z,7.2
2016-12-15T02:55:15.572Z,7.14
2016-12-15T02:56:15.972Z,7.18
2016-12-15T02:57:15.389Z,7.14
2016-12-15T02:58:14.568Z,7.15
2016-12-15T02:59:15.816Z,7.15
2016-12-15T03:00:14.962Z,7.14
2016-12-15T03:01:15.951Z,7.15
2016-12-15T03:02:15.068Z,7.14
2016-12-15T03:03:15.762Z,7.14
2016-12-15T03:04:14.879Z,7.13
2016-12-15T03:05:15.468Z,7.13
2016-12-15T03:06:15.617Z,7.15
2016-12-15T03:07:14.895Z,7.14
2016-12-15T03:08:15.233Z,7.03
2016-12-15T03:09:14.872Z,7.07
2016-12-15T03:10:15.240Z,7.14
2016-12-15T03:11:15.706Z,7.15
2016-12-15T03:12:15.432Z,7.11
2016-12-15T03:13:16.210Z,7.11
2016-12-15T03:14:14.856Z,7.14
2016-12-15T03:15:15.197Z,7.11
2016-12-15T03:16:16.238Z,7.05
2016-12-15T03:17:15.776Z,7.11
2016-12-15T03:18:16.209Z,7.13
2016-12-15T03:19:15.180Z,7.07
2016-12-15T03:20:15.781Z,7.07
2016-12-15T03:21:15.577Z,7.1
2016-12-15T03:22:16.129Z,7.03
2016-12-15T03:23:15.920Z,7.02
2016-12-15T03:24:15.718Z,7
2016-12-15T03:25:15.595Z,7.1
2016-12-15T03:26:15.679Z,7.13
2016-12-15T03:27:18.936Z,7.03
2016-12-15T03:28:15.890Z,7
2016-12-15T03:29:16.141Z,7
2016-12-15T03:30:16.038Z,7.03
2016-12-15T03:31:16.554Z,7.1
2016-12-15T03:32:16.035Z,7.11
2016-12-15T03:33:15.732Z,7.11
2016-12-15T03:34:16.115Z,7.05
2016-12-15T03:35:15.335Z,7.06
2016-12-15T03:36:16.048Z,7.02
2016-12-15T03:37:15.788Z,6.99
2016-12-15T03:38:16.402Z,6.99
2016-12-15T03:39:15.781Z,7.03
2016-12-15T03:40:15.913Z,7
2016-12-15T03:41:16.126Z,7.06
2016-12-15T03:42:15.513Z,7.02
2016-12-15T03:43:16.072Z,7.02
2016-12-15T03:44:16.428Z,6.99
2016-12-15T03:45:16.023Z,6.96
2016-12-15T03:46:15.761Z,6.95
2016-12-15T03:47:15.904Z,6.95
2016-12-15T03:48:15.678Z,6.89
2016-12-15T03:49:15.711Z,6.95
2016-12-15T03:50:15.819Z,6.93
2016-12-15T03:51:16.129Z,6.89
2016-12-15T03:52:16.025Z,6.93
2016-12-15T03:53:15.888Z,6.87
2016-12-15T03:54:16.004Z,6.85
2016-12-15T03:55:17.120Z,6.84
2016-12-15T03:56:16.340Z,6.84
2016-12-15T03:57:16.414Z,6.84
2016-12-15T03:58:15.808Z,6.84
2016-12-15T03:59:16.687Z,6.81
2016-12-15T04:00:15.763Z,6.78
2016-12-15T04:01:16.338Z,6.87
2016-12-15T04:02:16.671Z,6.87
2016-12-15T04:03:16.286Z,6.81
2016-12-15T04:04:15.891Z,6.84
2016-12-15T04:05:16.807Z,6.84
2016-12-15T04:06:16.863Z,6.81
2016-12-15T04:07:15.860Z,6.82
2016-12-15T04:08:16.549Z,6.82
2016-12-15T04:09:16.255Z,6.87
2016-12-15T04:10:16.517Z,6.87
2016-12-15T04:11:16.014Z,6.84
2016-12-15T04:12:16.120Z,6.88
2016-12-15T04:13:16.428Z,6.81
2016-12-15T04:14:15.899Z,6.87
2016-12-15T04:15:16.424Z,6.85
2016-12-15T04:16:16.549Z,6.7
2016-12-15T04:17:16.172Z,6.69
2016-12-15T04:18:16.327Z,6.72
2016-12-15T04:19:16.397Z,6.74
2016-12-15T04:20:16.473Z,6.72
2016-12-15T04:21:16.712Z,6.84
2016-12-15T04:22:15.915Z,6.82
2016-12-15T04:23:16.322Z,6.82
2016-12-15T04:24:16.226Z,6.84
2016-12-15T04:25:16.634Z,6.84
2016-12-15T04:26:16.991Z,6.77
2016-12-15T04:27:17.949Z,6.85
2016-12-15T04:28:16.560Z,6.82
2016-12-15T04:29:16.762Z,6.78
2016-12-15T04:30:16.804Z,6.93
2016-12-15T04:31:16.632Z,6.84
2016-12-15T04:32:16.840Z,6.84
2016-12-15T04:33:17.042Z,6.92
2016-12-15T04:34:16.604Z,6.89
2016-12-15T04:35:17.203Z,6.87
2016-12-15T04:36:16.652Z,6.88
2016-12-15T04:37:16.592Z,6.79
2016-12-15T04:38:17.312Z,6.69
2016-12-15T04:39:17.028Z,6.69
2016-12-15T04:40:16.961Z,6.74
2016-12-15T04:41:16.944Z,6.67
2016-12-15T04:42:16.686Z,6.7
2016-12-15T04:43:16.511Z,6.64
2016-12-15T04:44:16.894Z,6.67
2016-12-15T04:45:16.579Z,6.67
2016-12-15T04:46:17.173Z,6.62
2016-12-15T04:47:16.976Z,6.56
2016-12-15T04:48:17.284Z,6.56
2016-12-15T04:49:16.660Z,6.56
2016-12-15T04:50:17.606Z,6.51
2016-12-15T04:51:17.838Z,6.49
2016-12-15T04:52:16.591Z,6.46
2016-12-15T04:53:17.371Z,6.39
2016-12-15T04:54:16.820Z,6.42
2016-12-15T04:55:17.733Z,6.36
2016-12-15T04:56:17.095Z,6.38
2016-12-15T04:57:17.268Z,6.38
2016-12-15T04:58:17.337Z,6.31
2016-12-15T04:59:17.300Z,6.26
2016-12-15T05:00:17.402Z,6.31
2016-12-15T05:01:17.445Z,6.33
2016-12-15T05:02:17.966Z,6.36
2016-12-15T05:03:17.185Z,6.28
2016-12-15T05:04:17.066Z,6.33
2016-12-15T05:05:17.260Z,6.33
2016-12-15T05:06:16.976Z,6.39
2016-12-15T05:07:16.725Z,6.33
2016-12-15T05:08:17.780Z,6.35
2016-12-15T05:09:17.231Z,6.33
2016-12-15T05:10:16.566Z,6.28
2016-12-15T05:11:16.750Z,6.35
2016-12-15T05:12:17.409Z,6.24
2016-12-15T05:13:18.884Z,6.38
2016-12-15T05:14:16.891Z,6.31
2016-12-15T05:15:17.392Z,6.44
2016-12-15T05:16:17.245Z,6.41
2016-12-15T05:17:17.524Z,6.35
2016-12-15T05:18:18.557Z,6.35
2016-12-15T05:19:18.321Z,6.38
2016-12-15T05:20:17.134Z,6.35
2016-12-15T05:21:17.615Z,6.35
2016-12-15T05:22:18.233Z,6.33
2016-12-15T05:23:18.186Z,6.44
2016-12-15T05:24:17.620Z,6.38
2016-12-15T05:25:18.740Z,6.44
2016-12-15T05:26:17.704Z,6.44
2016-12-15T05:27:18.394Z,6.41
2016-12-15T05:28:18.647Z,6.44
2016-12-15T05:29:18.327Z,6.35
2016-12-15T05:30:18.599Z,6.42
2016-12-15T05:31:18.349Z,6.36
2016-12-15T05:32:17.811Z,6.35
2016-12-15T05:33:18.529Z,6.33
2016-12-15T05:34:17.783Z,6.41
2016-12-15T05:35:18.751Z,6.45
2016-12-15T05:36:17.742Z,6.46
2016-12-15T05:37:17.938Z,6.49
2016-12-15T05:38:17.993Z,6.44
2016-12-15T05:39:18.463Z,6.39
2016-12-15T05:40:18.385Z,6.44
2016-12-15T05:41:18.678Z,6.41
2016-12-15T05:42:19.377Z,6.46
2016-12-15T05:43:17.859Z,6.46
2016-12-15T05:44:18.749Z,6.45
2016-12-15T05:45:18.223Z,6.45
2016-12-15T05:46:18.313Z,6.46
2016-12-15T05:47:18.560Z,6.41
2016-12-15T05:48:17.821Z,6.46
2016-12-15T05:49:17.829Z,6.42
2016-12-15T05:50:18.603Z,6.41
2016-12-15T05:51:18.496Z,6.38
2016-12-15T05:52:18.706Z,6.44
2016-12-15T05:53:19.935Z,6.39
2016-12-15T05:54:18.270Z,6.39
2016-12-15T05:55:18.329Z,6.39
2016-12-15T05:56:17.945Z,6.36
2016-12-15T05:57:17.942Z,6.38
2016-12-15T05:58:18.287Z,6.39
2016-12-15T05:59:18.293Z,6.35
2016-12-15T06:00:18.498Z,6.35
2016-12-15T06:01:18.664Z,6.41
2016-12-15T06:02:19.668Z,6.3
2016-12-15T06:03:19.435Z,6.33
2016-12-15T06:04:19.171Z,6.33
2016-12-15T06:05:19.388Z,6.35
2016-12-15T06:06:19.034Z,6.38
2016-12-15T06:07:18.688Z,6.35
2016-12-15T06:08:18.637Z,6.31
2016-12-15T06:09:17.777Z,6.38
2016-12-15T06:10:18.336Z,6.36
2016-12-15T06:11:18.262Z,6.31
2016-12-15T06:12:18.594Z,6.35
2016-12-15T06:13:18.246Z,6.31
2016-12-15T06:14:18.700Z,6.35
2016-12-15T06:15:18.645Z,6.42
2016-12-15T06:16:18.338Z,6.39
2016-12-15T06:17:17.705Z,6.39
2016-12-15T06:18:18.849Z,6.38
2016-12-15T06:19:19.117Z,6.38
2016-12-15T06:20:18.892Z,6.35
2016-12-15T06:21:19.249Z,6.39
2016-12-15T06:22:19.470Z,6.38
2016-12-15T06:23:19.736Z,6.38
2016-12-15T06:24:19.804Z,6.39
2016-12-15T06:25:18.398Z,6.38
2016-12-15T06:26:18.942Z,6.44
2016-12-15T06:27:18.811Z,6.28
2016-12-15T06:28:19.652Z,6.28
2016-12-15T06:29:18.693Z,6.31
2016-12-15T06:30:19.494Z,6.31
2016-12-15T06:31:20.020Z,6.35
2016-12-15T06:32:18.921Z,6.35
2016-12-15T06:33:21.207Z,6.28
2016-12-15T06:34:20.097Z,6.41
2016-12-15T06:35:19.386Z,6.3
2016-12-15T06:36:20.065Z,6.33
2016-12-15T06:37:18.837Z,6.35
2016-12-15T06:38:18.914Z,6.31
2016-12-15T06:39:20.199Z,6.3
2016-12-15T06:40:19.494Z,6.39
2016-12-15T06:41:19.265Z,6.42
2016-12-15T06:42:21.093Z,6.39
2016-12-15T06:43:19.158Z,6.42
2016-12-15T06:44:18.520Z,6.33
2016-12-15T06:46:18.717Z,6.39
2016-12-15T06:47:18.966Z,6.31
2016-12-15T06:48:19.081Z,6.33
2016-12-15T06:49:20.229Z,6.42
2016-12-15T06:50:19.340Z,6.44
2016-12-15T06:51:19.240Z,6.35
2016-12-15T06:52:18.717Z,6.39
2016-12-15T06:53:19.555Z,6.39
2016-12-15T06:54:18.541Z,6.44
2016-12-15T06:55:18.903Z,6.42
2016-12-15T06:56:18.650Z,6.44
2016-12-15T06:57:18.945Z,6.38
2016-12-15T06:58:19.317Z,6.45
2016-12-15T06:59:18.628Z,6.41
2016-12-15T07:00:19.486Z,6.44
2016-12-15T07:01:20.096Z,6.46
2016-12-15T07:02:19.205Z,6.44
2016-12-15T07:03:21.074Z,6.41
2016-12-15T07:04:19.078Z,6.45
2016-12-15T07:05:19.035Z,6.45
2016-12-15T07:06:19.091Z,6.39
2016-12-15T07:07:19.118Z,6.36
2016-12-15T07:08:19.379Z,6.46
2016-12-15T07:09:19.759Z,6.45
2016-12-15T07:10:18.917Z,6.41
2016-12-15T07:11:18.589Z,6.45
2016-12-15T07:12:19.514Z,6.42
2016-12-15T07:13:19.803Z,6.45
2016-12-15T07:14:19.966Z,6.39
2016-12-15T07:15:19.608Z,6.36
2016-12-15T07:16:18.892Z,6.51
2016-12-15T07:17:20.201Z,6.51
2016-12-15T07:18:18.979Z,6.54
2016-12-15T07:19:19.058Z,6.48
2016-12-15T07:20:19.129Z,6.54
2016-12-15T07:21:18.969Z,6.52
2016-12-15T07:22:18.780Z,6.51
2016-12-15T07:23:18.691Z,6.48
2016-12-15T07:24:19.106Z,6.56
2016-12-15T07:25:19.535Z,6.51
2016-12-15T07:26:19.346Z,6.51
2016-12-15T07:27:19.438Z,6.56
2016-12-15T07:28:20.215Z,6.54
2016-12-15T07:29:19.808Z,6.51
2016-12-15T07:30:19.478Z,6.54
2016-12-15T07:31:19.543Z,6.59
2016-12-15T07:32:19.673Z,6.56
2016-12-15T07:33:19.392Z,6.51
2016-12-15T07:34:19.800Z,6.52
2016-12-15T07:35:19.617Z,6.62
2016-12-15T07:36:20.843Z,6.6
2016-12-15T07:37:18.951Z,6.54
2016-12-15T07:38:19.382Z,6.66
2016-12-15T07:39:19.037Z,6.62
2016-12-15T07:40:19.662Z,6.7
2016-12-15T07:41:19.947Z,6.7
2016-12-15T07:42:19.429Z,6.63
2016-12-15T07:43:19.875Z,6.62
2016-12-15T07:44:19.661Z,6.6
2016-12-15T07:45:19.410Z,6.63
2016-12-15T07:46:19.230Z,6.66
2016-12-15T07:47:19.502Z,6.54
2016-12-15T07:48:20.847Z,6.63
2016-12-15T07:49:19.751Z,6.62
2016-12-15T07:50:19.789Z,6.62
2016-12-15T07:51:24.105Z,6.62
2016-12-15T07:52:19.553Z,6.54
2016-12-15T07:53:20.992Z,6.57
2016-12-15T07:54:20.019Z,6.57
2016-12-15T07:55:18.872Z,6.56
2016-12-15T07:56:19.779Z,6.6
2016-12-15T07:57:19.661Z,6.64
2016-12-15T07:58:19.671Z,6.66
2016-12-15T07:59:19.900Z,6.62
2016-12-15T08:00:20.067Z,6.66
2016-12-15T08:01:19.907Z,6.63
2016-12-15T08:02:19.876Z,6.67
2016-12-15T08:03:20.004Z,6.57
2016-12-15T08:04:19.587Z,6.63
2016-12-15T08:05:19.522Z,6.63
2016-12-15T08:06:19.999Z,6.59
2016-12-15T08:07:19.501Z,6.54
2016-12-15T08:08:19.710Z,6.52
2016-12-15T08:09:19.652Z,6.64
2016-12-15T08:10:19.824Z,6.62
2016-12-15T08:11:20.192Z,6.56
2016-12-15T08:12:19.881Z,6.56
2016-12-15T08:13:19.568Z,6.6
2016-12-15T08:14:19.921Z,6.54
2016-12-15T08:15:20.369Z,6.52
2016-12-15T08:16:19.571Z,6.56
2016-12-15T08:17:19.919Z,6.6
2016-12-15T08:18:19.572Z,6.56
2016-12-15T08:19:19.980Z,6.6
2016-12-15T08:20:20.357Z,6.6
2016-12-15T08:21:20.528Z,6.56
2016-12-15T08:22:20.364Z,6.6
2016-12-15T08:23:20.108Z,6.56
2016-12-15T08:24:20.296Z,6.6
2016-12-15T08:25:19.845Z,6.59
2016-12-15T08:26:19.563Z,6.63
2016-12-15T08:27:19.990Z,6.57
2016-12-15T08:28:19.937Z,6.57
2016-12-15T08:29:19.992Z,6.64
2016-12-15T08:30:20.247Z,6.62
2016-12-15T08:31:19.746Z,6.56
2016-12-15T08:32:19.614Z,6.67
2016-12-15T08:33:19.641Z,6.62
2016-12-15T08:34:20.282Z,6.63
2016-12-15T08:35:20.312Z,6.66
2016-12-15T08:36:20.657Z,6.62
2016-12-15T08:37:20.361Z,6.6
2016-12-15T08:38:21.375Z,6.64
2016-12-15T08:39:20.193Z,6.62
2016-12-15T08:40:20.713Z,6.56
2016-12-15T08:41:20.805Z,6.62
2016-12-15T08:42:19.938Z,6.62
2016-12-15T08:43:20.320Z,6.62
2016-12-15T08:44:20.473Z,6.67
2016-12-15T08:45:20.645Z,6.52
2016-12-15T08:46:20.371Z,6.66
2016-12-15T08:47:19.831Z,6.69
2016-12-15T08:48:20.230Z,6.66
2016-12-15T08:49:20.594Z,6.57
2016-12-15T08:50:20.723Z,6.63
2016-12-15T08:51:20.236Z,6.62
2016-12-15T08:52:19.981Z,6.57
2016-12-15T08:53:20.721Z,6.62
2016-12-15T08:54:20.026Z,6.54
2016-12-15T08:55:21.212Z,6.59
2016-12-15T09:07:43.066Z,6.46
2016-12-15T09:25:23.019Z,6.46
2016-12-15T09:32:21.982Z,6.39
2016-12-15T09:34:36.848Z,6.38
2016-12-15T09:35:26.993Z,6.39
2016-12-15T09:37:24.908Z,6.36
2016-12-15T09:38:21.689Z,6.42
2016-12-15T09:40:26.647Z,6.39
2016-12-15T09:43:20.506Z,6.39
2016-12-15T09:45:23.277Z,6.36
2016-12-15T09:51:22.369Z,6.39
2016-12-15T09:52:21.336Z,6.33
2016-12-15T09:56:21.981Z,6.38
2016-12-15T10:00:23.524Z,6.33
2016-12-15T10:01:21.248Z,6.33
2016-12-15T10:07:38.757Z,6.38
2016-12-15T10:08:24.783Z,6.36
2016-12-15T10:13:38.530Z,6.38
2016-12-15T10:15:21.349Z,6.28
2016-12-15T10:18:23.563Z,6.35
2016-12-15T10:19:23.470Z,6.39
2016-12-15T10:21:23.890Z,6.33
2016-12-15T10:32:25.743Z,6.24
2016-12-15T10:42:22.726Z,6.33
2016-12-15T10:49:43.780Z,6.35
2016-12-15T10:54:25.295Z,6.27
2016-12-15T11:01:24.374Z,6.24
2016-12-15T11:02:23.374Z,6.33
2016-12-15T11:05:38.396Z,6.24
2016-12-15T11:18:39.360Z,6.38
2016-12-15T11:20:24.777Z,6.38
2016-12-15T11:22:27.023Z,6.38
2016-12-15T11:30:10.084Z,6.42
2016-12-15T11:31:52.635Z,6.36
2016-12-15T11:33:56.945Z,6.51
2016-12-15T11:37:55.389Z,6.51
2016-12-15T11:40:55.176Z,6.62
2016-12-15T11:43:54.944Z,6.66
2016-12-15T11:45:53.178Z,6.67
2016-12-15T11:53:55.679Z,6.77
2016-12-15T12:03:54.219Z,6.85
2016-12-15T12:05:53.082Z,6.78
2016-12-15T12:07:52.934Z,6.82
2016-12-15T12:13:54.772Z,6.93
2016-12-15T12:22:55.167Z,7.06
2016-12-15T12:23:57.172Z,6.96
2016-12-15T12:40:54.434Z,6.89
2016-12-15T12:41:57.624Z,6.99
2016-12-15T12:47:57.899Z,7.02
2016-12-15T12:48:54.048Z,6.95
2016-12-15T12:52:54.178Z,7.07
2016-12-15T12:56:59.979Z,7.02
2016-12-15T13:06:55.397Z,7.05
2016-12-15T13:16:56.722Z,7.11
2016-12-15T13:23:56.795Z,7
2016-12-15T13:24:55.856Z,7.11
2016-12-15T13:27:56.006Z,7.14
2016-12-15T13:28:56.823Z,7.14
2016-12-15T13:30:11.358Z,7.15
2016-12-15T13:34:52.160Z,7.03
2016-12-15T13:41:40.188Z,7.02
2016-12-15T13:50:37.503Z,7.18
2016-12-15T13:59:40.912Z,7.23
2016-12-15T14:00:35.701Z,7.18
2016-12-15T14:01:35.733Z,7.21
2016-12-15T14:02:35.568Z,7.15
2016-12-15T14:03:36.299Z,7.24
2016-12-15T14:04:35.839Z,7.17
2016-12-15T14:05:35.743Z,7.2
2016-12-15T14:06:35.806Z,7.23
2016-12-15T14:07:35.471Z,7.15
2016-12-15T14:08:35.679Z,7.14
2016-12-15T14:09:35.833Z,7.14
2016-12-15T14:10:35.563Z,7.2
2016-12-15T14:11:35.250Z,7.18
2016-12-15T14:12:36.171Z,7.17
2016-12-15T14:13:36.246Z,7.15
2016-12-15T14:14:36.040Z,7.13
2016-12-15T14:15:36.655Z,7.11
2016-12-15T14:16:36.185Z,7.14
2016-12-15T14:17:35.410Z,7.17
2016-12-15T14:18:35.810Z,7.14
2016-12-15T14:19:35.613Z,7.14
2016-12-15T14:20:35.749Z,7.05
2016-12-15T14:21:35.697Z,7.15
2016-12-15T14:22:35.541Z,7.11
2016-12-15T14:23:35.889Z,7.11
2016-12-15T14:24:36.129Z,7.03
2016-12-15T14:25:36.431Z,7.03
2016-12-15T14:26:35.672Z,7
2016-12-15T14:27:35.377Z,7.14
2016-12-15T14:28:36.438Z,7.14
2016-12-15T14:29:35.504Z,7.11
2016-12-15T14:30:35.680Z,7.14
2016-12-15T14:31:35.627Z,7.14
2016-12-15T14:32:35.729Z,7.17
2016-12-15T14:33:35.657Z,7.14
2016-12-15T14:34:36.143Z,7.14
2016-12-15T14:35:36.589Z,7.18
2016-12-15T14:36:36.416Z,7.11
2016-12-15T14:37:35.704Z,7.18
2016-12-15T14:38:36.498Z,7.17
2016-12-15T14:39:36.094Z,7.11
2016-12-15T14:40:36.167Z,7.18
2016-12-15T14:41:36.422Z,7.13
2016-12-15T14:42:35.840Z,7.14
2016-12-15T14:43:36.461Z,7.03
2016-12-15T14:44:35.925Z,7.18
2016-12-15T14:45:36.670Z,7.15
2016-12-15T14:46:37.061Z,7.03
2016-12-15T14:47:36.335Z,7.02
2016-12-15T14:48:37.063Z,7.03
2016-12-15T14:49:36.438Z,7.15
2016-12-15T14:50:36.010Z,7.13
2016-12-15T14:51:36.028Z,7.07
2016-12-15T14:52:37.232Z,7.07
2016-12-15T14:53:36.153Z,7.05
2016-12-15T14:54:36.611Z,7
2016-12-15T14:55:36.010Z,7.05
2016-12-15T14:56:36.666Z,7
2016-12-15T14:57:36.966Z,7.06
2016-12-15T14:58:36.441Z,7.11
2016-12-15T14:59:36.247Z,7.06
2016-12-15T15:00:37.762Z,7.05
2016-12-15T15:01:36.271Z,7.05
2016-12-15T15:02:36.610Z,7.07
2016-12-15T15:03:36.193Z,6.95
2016-12-15T15:04:37.405Z,7.03
2016-12-15T15:05:36.282Z,6.95
2016-12-15T15:06:41.455Z,6.92
2016-12-15T15:07:36.763Z,6.85
2016-12-15T15:08:36.773Z,6.88
2016-12-15T15:09:36.622Z,6.97
2016-12-15T15:10:36.332Z,6.89
2016-12-15T15:11:37.345Z,6.96
2016-12-15T15:12:37.286Z,6.88
2016-12-15T15:13:37.333Z,6.87
2016-12-15T15:14:37.765Z,6.88
2016-12-15T15:15:37.487Z,6.84
2016-12-15T15:16:37.949Z,6.81
2016-12-15T15:17:37.169Z,6.89
2016-12-15T15:19:38.360Z,6.84
2016-12-15T15:20:37.253Z,6.78
2016-12-15T15:21:36.760Z,6.75
2016-12-15T15:22:36.990Z,6.74
2016-12-15T15:23:37.149Z,6.7
2016-12-15T15:24:37.811Z,6.67
2016-12-15T15:25:37.898Z,6.72
2016-12-15T15:26:38.577Z,6.7
2016-12-15T15:27:36.808Z,6.74
2016-12-15T15:28:38.281Z,6.67
2016-12-15T15:29:37.887Z,6.69
2016-12-15T15:30:37.556Z,6.74
2016-12-15T15:31:37.793Z,6.77
2016-12-15T15:32:37.719Z,6.66
2016-12-15T15:33:38.500Z,6.67
2016-12-15T15:34:38.382Z,6.82
2016-12-15T15:35:37.567Z,6.74
2016-12-15T15:36:37.584Z,6.89
2016-12-15T15:37:37.484Z,6.79
2016-12-15T15:38:37.970Z,6.77
2016-12-15T15:39:38.568Z,6.74
2016-12-15T15:40:38.257Z,6.77
2016-12-15T15:41:38.510Z,6.75
2016-12-15T15:42:39.693Z,6.84
2016-12-15T15:43:38.259Z,6.75
2016-12-15T15:44:38.238Z,6.84
2016-12-15T15:45:38.201Z,6.84
2016-12-15T15:46:37.630Z,6.85
2016-12-15T15:47:39.013Z,6.89
2016-12-15T15:48:39.195Z,6.89
2016-12-15T15:49:37.386Z,6.82
2016-12-15T15:50:37.801Z,6.88
2016-12-15T15:51:38.314Z,6.84
2016-12-15T15:52:38.259Z,6.84
2016-12-15T15:53:38.407Z,6.74
2016-12-15T15:54:37.689Z,6.7
2016-12-15T15:55:37.237Z,6.72
2016-12-15T15:56:39.289Z,6.78
2016-12-15T15:57:37.454Z,6.79
2016-12-15T15:58:38.203Z,6.72
2016-12-15T15:59:38.673Z,6.67
2016-12-15T16:00:37.743Z,6.77
2016-12-15T16:01:38.701Z,6.75
2016-12-15T16:02:38.508Z,6.77
2016-12-15T16:03:38.922Z,6.67
2016-12-15T16:04:38.023Z,6.75
2016-12-15T16:05:37.988Z,6.7
2016-12-15T16:06:38.475Z,6.63
2016-12-15T16:07:38.592Z,6.74
2016-12-15T16:08:38.075Z,6.69
2016-12-15T16:09:38.566Z,6.74
2016-12-15T16:10:38.639Z,6.72
2016-12-15T16:11:38.236Z,6.77
2016-12-15T16:12:38.159Z,6.79
2016-12-15T16:13:38.526Z,6.69
2016-12-15T16:14:38.359Z,6.7
2016-12-15T16:15:37.934Z,6.75
2016-12-15T16:16:38.228Z,6.64
2016-12-15T16:17:38.704Z,6.64
2016-12-15T16:18:39.546Z,6.66
2016-12-15T16:19:38.536Z,6.64
2016-12-15T16:20:38.975Z,6.66
2016-12-15T16:21:39.972Z,6.63
2016-12-15T16:22:38.762Z,6.67
2016-12-15T16:24:39.016Z,6.69
2016-12-15T16:25:37.809Z,6.66
2016-12-15T16:26:38.830Z,6.64
2016-12-15T16:27:52.230Z,6.64
2016-12-15T16:28:37.826Z,6.6
2016-12-15T16:29:38.025Z,6.57
2016-12-15T16:30:38.284Z,6.6
2016-12-15T16:31:38.106Z,6.6
2016-12-15T16:32:37.889Z,6.56
2016-12-15T16:33:39.167Z,6.54
2016-12-15T16:34:38.506Z,6.59
2016-12-15T16:35:40.039Z,6.56
2016-12-15T16:36:38.496Z,6.51
2016-12-15T16:37:38.203Z,6.51
2016-12-15T16:38:38.196Z,6.41
2016-12-15T16:39:39.003Z,6.44
2016-12-15T16:40:39.068Z,6.31
2016-12-15T16:41:38.891Z,6.31
2016-12-15T16:42:38.678Z,6.38
2016-12-15T16:43:38.541Z,6.35
2016-12-15T16:44:38.069Z,6.36
2016-12-15T16:45:39.124Z,6.38
2016-12-15T16:46:38.980Z,6.41
2016-12-15T16:47:38.136Z,6.33
2016-12-15T16:48:38.344Z,6.35
2016-12-15T16:49:38.421Z,6.36
2016-12-15T16:50:38.643Z,6.36
2016-12-15T16:51:39.283Z,6.33
2016-12-15T16:52:38.376Z,6.33
2016-12-15T16:53:39.384Z,6.28
2016-12-15T16:54:39.544Z,6.28
2016-12-15T16:55:38.922Z,6.28
2016-12-15T16:56:39.011Z,6.33
2016-12-15T16:57:38.233Z,6.38
2016-12-15T16:58:39.393Z,6.36
2016-12-15T16:59:38.453Z,6.26
2016-12-15T17:00:38.854Z,6.3
2016-12-15T17:01:38.673Z,6.27
2016-12-15T17:02:39.925Z,6.31
2016-12-15T17:03:39.300Z,6.22
2016-12-15T17:04:39.337Z,6.22
2016-12-15T17:05:38.910Z,6.16
2016-12-15T17:06:38.632Z,6.2
2016-12-15T17:07:38.429Z,6.24
2016-12-15T17:08:39.286Z,6.14
2016-12-15T17:09:38.953Z,6.22
2016-12-15T17:10:39.122Z,6.11
2016-12-15T17:11:39.346Z,6.11
2016-12-15T17:12:38.980Z,6.09
2016-12-15T17:13:39.330Z,6.2
2016-12-15T17:14:41.015Z,6.14
2016-12-15T17:15:39.839Z,6.19
2016-12-15T17:16:39.095Z,6.09
2016-12-15T17:17:39.018Z,6.17
2016-12-15T17:18:39.103Z,6.08
2016-12-15T17:19:38.610Z,6.12
2016-12-15T17:20:39.955Z,6.12
2016-12-15T17:21:39.683Z,6.17
2016-12-15T17:22:39.033Z,6.12
2016-12-15T17:23:39.249Z,6.16
2016-12-15T17:24:38.998Z,6.08